createdAt,value
2018-11-07T00:00:54.879Z,25.40
2018-11-07T00:03:26.616Z,25.23
2018-11-07T00:05:58.076Z,25.53
2018-11-07T00:08:29.604Z,24.67
2018-11-07T00:11:00.685Z,24.80
2018-11-07T00:13:32.028Z,24.73
2018-11-07T00:16:03.690Z,25.77
2018-11-07T00:18:35.330Z,25.83
2018-11-07T00:21:07.158Z,24.40
2018-11-07T00:23:38.707Z,26.17
2018-11-07T00:26:10.317Z,25.93
2018-11-07T00:28:41.553Z,25.87
2018-11-07T00:31:12.958Z,27.33
2018-11-07T00:33:44.892Z,26.37
2018-11-07T00:36:16.780Z,26.30
2018-11-07T00:38:48.079Z,25.20
2018-11-07T00:41:19.518Z,25.97
2018-11-07T00:43:51.463Z,26.70
2018-11-07T00:46:22.872Z,26.10
2018-11-07T00:48:54.474Z,26.30
2018-11-07T00:51:25.881Z,27.77
2018-11-07T00:53:57.389Z,26.23
2018-11-07T00:56:28.831Z,26.43
2018-11-07T00:59:00.039Z,27.40
2018-11-07T01:01:31.519Z,28.03
2018-11-07T01:04:03.192Z,25.93
2018-11-07T01:06:35.084Z,27.00
2018-11-07T01:09:11.677Z,27.03
2018-11-07T01:11:43.749Z,26.87
2018-11-07T01:14:15.100Z,27.03
2018-11-07T01:16:46.354Z,27.07
2018-11-07T01:19:17.896Z,28.00
2018-11-07T01:21:50.205Z,27.57
2018-11-07T01:24:21.510Z,26.60
2018-11-07T01:26:52.997Z,28.17
2018-11-07T01:29:24.448Z,27.13
2018-11-07T01:31:55.912Z,27.43
2018-11-07T01:34:27.521Z,27.73
2018-11-07T01:36:58.763Z,27.87
2018-11-07T01:39:30.213Z,27.63
2018-11-07T01:42:01.841Z,26.30
2018-11-07T01:44:33.256Z,27.97
2018-11-07T01:47:04.464Z,27.50
2018-11-07T01:49:35.942Z,28.17
2018-11-07T01:52:07.554Z,27.07
2018-11-07T01:54:39.029Z,26.73
2018-11-07T01:57:10.246Z,26.27
2018-11-07T01:59:41.489Z,27.70
2018-11-07T02:02:12.838Z,27.00
2018-11-07T02:04:44.476Z,26.50
2018-11-07T02:07:15.976Z,26.07
2018-11-07T02:09:47.401Z,26.37
2018-11-07T02:12:18.876Z,26.67
2018-11-07T02:14:50.426Z,27.20
2018-11-07T02:17:22.018Z,26.83
2018-11-07T02:19:53.638Z,27.37
2018-11-07T02:22:25.125Z,27.57
2018-11-07T02:24:56.188Z,28.33
2018-11-07T02:27:27.432Z,27.43
2018-11-07T02:29:58.956Z,26.70
2018-11-07T02:32:30.521Z,27.60
2018-11-07T02:35:01.892Z,26.97
2018-11-07T02:37:33.315Z,25.90
2018-11-07T02:40:04.925Z,26.33
2018-11-07T02:42:37.196Z,26.73
2018-11-07T02:45:08.677Z,26.07
2018-11-07T02:47:40.471Z,33.17
2018-11-07T02:50:12.633Z,26.03
2018-11-07T02:52:44.069Z,25.90
2018-11-07T02:55:15.481Z,27.20
2018-11-07T02:57:46.740Z,25.90
2018-11-07T03:00:18.257Z,26.47
2018-11-07T03:02:49.777Z,27.10
2018-11-07T03:05:21.288Z,26.43
2018-11-07T03:07:52.788Z,25.70
2018-11-07T03:10:24.071Z,27.23
2018-11-07T03:12:55.338Z,27.03
2018-11-07T03:15:26.684Z,25.93
2018-11-07T03:17:58.155Z,26.30
2018-11-07T03:20:29.713Z,25.77
2018-11-07T03:23:00.772Z,25.80
2018-11-07T03:25:36.222Z,25.70
2018-11-07T03:28:07.829Z,26.50
2018-11-07T03:30:39.177Z,25.70
2018-11-07T03:33:10.553Z,25.47
2018-11-07T03:35:41.983Z,25.30
2018-11-07T03:38:13.097Z,26.83
2018-11-07T03:40:44.474Z,27.43
2018-11-07T03:43:15.839Z,27.87
2018-11-07T03:45:51.912Z,26.00
2018-11-07T03:48:23.785Z,27.33
2018-11-07T03:50:55.186Z,27.87
2018-11-07T03:53:26.727Z,26.00
2018-11-07T03:55:58.278Z,26.33
2018-11-07T03:58:29.762Z,28.27
2018-11-07T04:01:01.543Z,25.90
2018-11-07T04:03:33.013Z,25.27
2018-11-07T04:06:04.760Z,26.00
2018-11-07T04:08:35.969Z,27.73
2018-11-07T04:11:07.250Z,26.77
2018-11-07T04:13:38.756Z,27.10
2018-11-07T04:16:10.029Z,25.67
2018-11-07T04:18:41.411Z,27.23
2018-11-07T04:21:12.591Z,27.10
2018-11-07T04:23:47.912Z,27.20
2018-11-07T04:26:19.236Z,27.63
2018-11-07T04:28:50.967Z,27.27
2018-11-07T04:31:22.522Z,26.77
2018-11-07T04:33:53.787Z,27.00
2018-11-07T04:36:25.868Z,27.50
2018-11-07T04:38:57.152Z,28.30
2018-11-07T04:41:28.709Z,26.90
2018-11-07T04:44:00.283Z,27.73
2018-11-07T04:46:31.840Z,26.27
2018-11-07T04:49:03.377Z,28.43
2018-11-07T04:51:34.826Z,26.67
2018-11-07T04:54:06.393Z,27.10
2018-11-07T04:56:37.616Z,28.43
2018-11-07T04:59:08.814Z,28.37
2018-11-07T05:01:40.498Z,28.60
2018-11-07T05:04:11.951Z,27.27
2018-11-07T05:06:43.378Z,27.63
2018-11-07T05:09:15.283Z,36.23
2018-11-07T05:11:46.631Z,27.50
2018-11-07T05:14:17.992Z,29.13
2018-11-07T05:16:49.335Z,27.80
2018-11-07T05:19:21.181Z,28.37
2018-11-07T05:21:52.837Z,28.33
2018-11-07T05:24:24.409Z,30.47
2018-11-07T05:26:55.968Z,28.17
2018-11-07T05:29:27.152Z,28.07
2018-11-07T05:31:58.994Z,29.93
2018-11-07T05:34:30.644Z,28.43
2018-11-07T05:37:02.257Z,28.73
2018-11-07T05:39:33.837Z,27.27
2018-11-07T05:42:05.485Z,26.30
2018-11-07T05:44:36.914Z,27.10
2018-11-07T05:47:08.159Z,29.03
2018-11-07T05:49:39.506Z,33.27
2018-11-07T05:52:11.269Z,29.23
2018-11-07T05:54:42.590Z,28.63
2018-11-07T05:57:14.085Z,27.57
2018-11-07T05:59:45.643Z,27.70
2018-11-07T06:02:17.014Z,28.37
2018-11-07T06:04:48.340Z,29.00
2018-11-07T06:07:19.948Z,27.57
2018-11-07T06:09:51.436Z,27.70
2018-11-07T06:12:23.039Z,27.57
2018-11-07T06:14:54.450Z,28.40
2018-11-07T06:17:25.787Z,27.77
2018-11-07T06:19:57.258Z,29.50
2018-11-07T06:22:28.835Z,28.87
2018-11-07T06:25:00.791Z,28.23
2018-11-07T06:27:32.526Z,27.33
2018-11-07T06:30:03.924Z,27.97
2018-11-07T06:32:35.428Z,28.13
2018-11-07T06:35:08.356Z,26.97
2018-11-07T06:37:39.594Z,28.03
2018-11-07T06:40:12.259Z,28.60
2018-11-07T06:42:43.798Z,28.60
2018-11-07T06:45:15.133Z,29.97
2018-11-07T06:47:46.571Z,28.23
2018-11-07T06:50:18.023Z,26.27
2018-11-07T06:52:49.544Z,27.37
2018-11-07T06:55:21.037Z,27.50
2018-11-07T06:57:52.387Z,25.60
2018-11-07T07:00:23.913Z,25.70
2018-11-07T07:02:55.312Z,25.30
2018-11-07T07:05:26.616Z,28.03
2018-11-07T07:07:57.917Z,26.60
2018-11-07T07:10:29.452Z,26.70
2018-11-07T07:13:00.852Z,26.23
2018-11-07T07:15:32.537Z,23.87
2018-11-07T07:18:04.360Z,24.47
2018-11-07T07:20:35.546Z,25.30
2018-11-07T07:23:07.072Z,26.53
2018-11-07T07:25:38.292Z,28.00
2018-11-07T07:28:10.121Z,26.30
2018-11-07T07:30:41.497Z,25.60
2018-11-07T07:33:12.857Z,25.13
2018-11-07T07:35:43.905Z,25.83
2018-11-07T07:38:15.532Z,25.30
2018-11-07T07:40:47.032Z,25.47
2018-11-07T07:43:18.205Z,26.27
2018-11-07T07:45:49.905Z,25.33
2018-11-07T07:48:21.221Z,24.87
2018-11-07T07:50:52.327Z,24.70
2018-11-07T07:53:23.473Z,25.60
2018-11-07T07:55:55.009Z,24.10
2018-11-07T07:58:26.171Z,24.30
2018-11-07T08:00:57.618Z,23.83
2018-11-07T08:03:29.265Z,24.40
2018-11-07T08:06:00.733Z,25.10
2018-11-07T08:08:32.480Z,25.07
2018-11-07T08:11:03.676Z,25.77
2018-11-07T08:13:35.652Z,25.20
2018-11-07T08:16:07.342Z,26.97
2018-11-07T08:18:38.591Z,25.67
2018-11-07T08:21:10.068Z,26.57
2018-11-07T08:23:41.281Z,24.93
2018-11-07T08:26:12.912Z,25.73
2018-11-07T08:28:44.440Z,25.03
2018-11-07T08:31:15.782Z,26.80
2018-11-07T08:33:47.507Z,24.60
2018-11-07T08:36:18.788Z,24.40
2018-11-07T08:38:50.102Z,25.87
2018-11-07T08:41:21.973Z,24.23
2018-11-07T08:43:53.452Z,24.90
2018-11-07T08:46:25.037Z,25.07
2018-11-07T08:48:56.536Z,25.23
2018-11-07T08:51:27.957Z,25.30
2018-11-07T08:53:59.525Z,23.83
2018-11-07T08:56:30.796Z,31.73
2018-11-07T08:59:02.293Z,29.83
2018-11-07T09:04:05.355Z,28.17
2018-11-07T09:06:37.785Z,23.30
2018-11-07T09:09:11.841Z,24.40
2018-11-07T09:11:43.570Z,25.97
2018-11-07T09:14:14.885Z,28.63
2018-11-07T09:16:46.393Z,24.13
2018-11-07T09:19:18.117Z,23.80
2018-11-07T09:21:49.715Z,23.80
2018-11-07T09:24:21.311Z,24.97
2018-11-07T09:26:52.604Z,24.27
2018-11-07T09:29:24.267Z,23.33
2018-11-07T09:31:55.737Z,24.83
2018-11-07T09:34:27.457Z,22.23
2018-11-07T09:36:59.238Z,23.20
2018-11-07T09:39:30.457Z,23.27
2018-11-07T09:42:02.114Z,21.90
2018-11-07T09:44:33.819Z,22.70
2018-11-07T09:47:05.524Z,23.50
2018-11-07T09:49:36.667Z,21.67
2018-11-07T09:52:08.241Z,21.83
2018-11-07T09:54:39.629Z,22.13
2018-11-07T09:57:10.967Z,22.23
2018-11-07T09:59:42.195Z,22.03
2018-11-07T10:02:13.913Z,21.70
2018-11-07T10:04:45.295Z,23.50
2018-11-07T10:07:16.662Z,21.53
2018-11-07T10:09:48.237Z,22.50
2018-11-07T10:12:19.541Z,28.33
2018-11-07T10:14:51.034Z,22.53
2018-11-07T10:17:22.478Z,21.13
2018-11-07T10:19:53.796Z,20.13
2018-11-07T10:22:25.335Z,21.17
2018-11-07T10:24:56.814Z,20.93
2018-11-07T10:27:29.030Z,20.70
2018-11-07T10:30:00.546Z,20.10
2018-11-07T10:32:31.796Z,20.70
2018-11-07T10:35:03.074Z,20.57
2018-11-07T10:37:34.269Z,20.67
2018-11-07T10:40:07.562Z,21.20
2018-11-07T10:42:39.072Z,21.63
2018-11-07T10:45:11.357Z,21.17
2018-11-07T10:47:43.873Z,21.27
2018-11-07T10:50:16.522Z,21.17
2018-11-07T10:52:48.508Z,22.40
2018-11-07T10:55:20.007Z,21.60
2018-11-07T10:57:51.594Z,21.13
2018-11-07T11:00:27.997Z,21.10
2018-11-07T11:03:10.022Z,20.13
2018-11-07T11:05:41.440Z,20.83
2018-11-07T11:08:12.891Z,20.70
2018-11-07T11:10:44.543Z,21.17
2018-11-07T11:13:15.895Z,20.67
2018-11-07T11:15:47.346Z,21.37
2018-11-07T11:18:18.525Z,21.63
2018-11-07T11:20:50.011Z,21.23
2018-11-07T11:23:21.414Z,24.83
2018-11-07T11:25:53.049Z,22.83
2018-11-07T11:28:24.605Z,21.23
2018-11-07T11:30:56.249Z,27.60
2018-11-07T11:33:27.708Z,23.63
2018-11-07T11:35:59.165Z,21.10
2018-11-07T11:38:30.504Z,20.23
2018-11-07T11:41:01.960Z,20.43
2018-11-07T11:43:33.366Z,24.23
2018-11-07T11:46:04.902Z,20.53
2018-11-07T11:48:36.532Z,21.30
2018-11-07T11:51:08.314Z,23.80
2018-11-07T11:53:39.793Z,30.37
2018-11-07T11:56:11.473Z,30.43
2018-11-07T11:58:43.498Z,26.23
2018-11-07T12:01:15.144Z,23.63
2018-11-07T12:03:46.898Z,24.47
2018-11-07T12:06:18.613Z,22.17
2018-11-07T12:08:50.064Z,19.77
2018-11-07T12:11:21.574Z,19.20
2018-11-07T12:13:53.083Z,19.93
2018-11-07T12:16:24.334Z,20.27
2018-11-07T12:18:55.529Z,19.50
2018-11-07T12:21:26.928Z,24.47
2018-11-07T12:23:58.328Z,20.60
2018-11-07T12:26:29.770Z,21.23
2018-11-07T12:29:01.162Z,22.43
2018-11-07T12:31:32.321Z,21.23
2018-11-07T12:34:03.799Z,20.53
2018-11-07T12:36:35.446Z,21.13
2018-11-07T12:39:08.900Z,21.20
2018-11-07T12:41:40.128Z,20.87
2018-11-07T12:44:11.735Z,20.97
2018-11-07T12:46:43.087Z,20.53
2018-11-07T12:49:14.290Z,22.17
2018-11-07T12:51:45.580Z,23.87
2018-11-07T12:54:17.138Z,24.07
2018-11-07T12:56:48.695Z,22.00
2018-11-07T12:59:20.067Z,21.83
2018-11-07T13:01:51.498Z,21.67
2018-11-07T13:04:23.097Z,23.03
2018-11-07T13:06:54.903Z,21.97
2018-11-07T13:09:26.443Z,25.40
2018-11-07T13:11:58.315Z,26.47
2018-11-07T13:14:29.696Z,30.17
2018-11-07T13:17:01.277Z,30.23
2018-11-07T13:19:32.786Z,24.63
2018-11-07T13:22:04.351Z,23.80
2018-11-07T13:24:36.253Z,22.47
2018-11-07T13:27:08.043Z,28.20
2018-11-07T13:29:39.677Z,28.27
2018-11-07T13:32:11.031Z,25.40
2018-11-07T13:34:42.413Z,29.13
2018-11-07T13:37:13.801Z,27.43
2018-11-07T13:39:45.157Z,24.87
2018-11-07T13:42:16.773Z,26.73
2018-11-07T13:44:48.223Z,25.93
2018-11-07T13:47:19.804Z,24.00
2018-11-07T13:49:51.209Z,24.07
2018-11-07T13:52:22.958Z,26.73
2018-11-07T13:54:54.478Z,21.80
2018-11-07T13:57:25.854Z,23.83
2018-11-07T13:59:57.284Z,23.70
2018-11-07T14:02:28.512Z,23.47
2018-11-07T14:04:59.781Z,23.37
2018-11-07T14:07:30.974Z,22.50
2018-11-07T14:10:02.688Z,26.73
2018-11-07T14:12:34.369Z,24.80
2018-11-07T14:15:07.360Z,23.67
2018-11-07T14:17:38.752Z,21.17
2018-11-07T14:20:10.425Z,22.17
2018-11-07T14:22:41.881Z,22.27
2018-11-07T14:25:13.993Z,22.30
2018-11-07T14:27:45.860Z,23.33
2018-11-07T14:30:19.209Z,22.60
2018-11-07T14:32:57.328Z,22.53
2018-11-07T14:35:28.923Z,22.93
2018-11-07T14:38:00.422Z,22.13
2018-11-07T14:40:31.890Z,23.60
2018-11-07T14:43:03.311Z,22.93
2018-11-07T14:45:34.504Z,24.83
2018-11-07T14:48:05.989Z,23.97
2018-11-07T14:50:37.444Z,22.83
2018-11-07T14:53:09.122Z,30.33
2018-11-07T14:55:40.441Z,24.97
2018-11-07T14:58:12.000Z,25.70
2018-11-07T15:00:43.712Z,27.03
2018-11-07T15:03:15.526Z,25.87
2018-11-07T15:05:46.851Z,22.73
2018-11-07T15:08:18.178Z,22.80
2018-11-07T15:10:49.672Z,23.53
2018-11-07T15:13:20.901Z,22.77
2018-11-07T15:15:52.400Z,22.40
2018-11-07T15:18:23.564Z,23.97
2018-11-07T15:20:55.287Z,23.73
2018-11-07T15:23:26.790Z,24.20
2018-11-07T15:25:57.951Z,24.70
2018-11-07T15:28:29.128Z,21.77
2018-11-07T15:31:00.391Z,21.53
2018-11-07T15:33:31.988Z,22.63
2018-11-07T15:36:03.513Z,23.77
2018-11-07T15:38:35.004Z,22.53
2018-11-07T15:41:06.522Z,26.17
2018-11-07T15:43:38.183Z,41.07
2018-11-07T15:46:09.613Z,22.47
2018-11-07T15:48:41.009Z,26.17
2018-11-07T15:51:13.372Z,23.37
2018-11-07T15:53:44.757Z,21.73
2018-11-07T15:56:16.040Z,23.27
2018-11-07T15:58:47.244Z,24.50
2018-11-07T16:01:18.881Z,21.20
2018-11-07T16:03:51.452Z,22.83
2018-11-07T16:06:22.892Z,22.97
2018-11-07T16:08:55.499Z,23.43
2018-11-07T16:11:27.820Z,23.37
2018-11-07T16:13:59.323Z,22.63
2018-11-07T16:16:30.777Z,22.80
2018-11-07T16:19:02.573Z,22.60
2018-11-07T16:21:34.284Z,22.27
2018-11-07T16:24:06.491Z,24.03
2018-11-07T16:26:38.133Z,23.57
2018-11-07T16:29:09.950Z,24.57
2018-11-07T16:31:41.348Z,26.30
2018-11-07T16:34:12.713Z,26.23
2018-11-07T16:36:44.309Z,23.97
2018-11-07T16:39:15.740Z,25.20
2018-11-07T16:41:47.338Z,28.40
2018-11-07T16:44:18.653Z,28.37
2018-11-07T16:46:49.968Z,24.13
2018-11-07T16:49:21.476Z,24.17
2018-11-07T16:51:53.015Z,25.50
2018-11-07T16:54:24.248Z,24.40
2018-11-07T16:56:55.774Z,24.27
2018-11-07T16:59:27.000Z,24.70
2018-11-07T17:01:58.797Z,24.80
2018-11-07T17:04:30.289Z,23.97
2018-11-07T17:07:01.795Z,22.70
2018-11-07T17:09:33.256Z,23.33
2018-11-07T17:12:04.737Z,25.40
2018-11-07T17:14:36.187Z,25.53
2018-11-07T17:17:07.605Z,27.07
2018-11-07T17:19:40.130Z,24.57
2018-11-07T17:22:12.094Z,25.03
2018-11-07T17:24:43.541Z,22.23
2018-11-07T17:27:15.208Z,21.27
2018-11-07T17:29:46.832Z,23.23
2018-11-07T17:32:18.614Z,21.03
2018-11-07T17:34:50.555Z,21.77
2018-11-07T17:37:21.925Z,23.33
2018-11-07T17:39:53.734Z,21.73
2018-11-07T17:42:25.200Z,22.30
2018-11-07T17:44:56.634Z,23.07
2018-11-07T17:47:28.119Z,22.53
2018-11-07T17:49:59.571Z,22.53
2018-11-07T17:52:31.111Z,22.17
2018-11-07T17:55:02.517Z,21.53
2018-11-07T17:57:34.362Z,21.80
2018-11-07T18:00:06.892Z,21.57
2018-11-07T18:02:38.853Z,21.67
2018-11-07T18:05:10.316Z,21.50
2018-11-07T18:07:41.883Z,22.20
2018-11-07T18:10:14.809Z,21.27
2018-11-07T18:12:46.726Z,22.77
2018-11-07T18:15:18.205Z,21.70
2018-11-07T18:17:49.949Z,22.73
2018-11-07T18:20:21.729Z,20.77
2018-11-07T18:22:53.512Z,22.43
2018-11-07T18:25:25.414Z,44.40
2018-11-07T18:27:57.253Z,21.33
2018-11-07T18:30:28.708Z,21.13
2018-11-07T18:33:00.440Z,30.03
2018-11-07T18:35:31.968Z,31.17
2018-11-07T18:38:03.633Z,32.40
2018-11-07T18:40:35.167Z,26.47
2018-11-07T18:43:06.623Z,26.20
2018-11-07T18:45:38.002Z,30.73
2018-11-07T18:48:09.518Z,28.20
2018-11-07T18:50:41.337Z,25.40
2018-11-07T18:53:12.629Z,20.83
2018-11-07T18:55:44.408Z,20.80
2018-11-07T18:58:16.238Z,21.17
2018-11-07T19:00:47.781Z,20.80
2018-11-07T19:03:19.828Z,20.03
2018-11-07T19:05:51.271Z,21.37
2018-11-07T19:08:23.401Z,22.20
2018-11-07T19:10:54.860Z,23.30
2018-11-07T19:13:27.475Z,21.47
2018-11-07T19:16:00.152Z,21.60
2018-11-07T19:18:31.693Z,21.33
2018-11-07T19:21:03.319Z,20.90
2018-11-07T19:23:35.420Z,20.60
2018-11-07T19:26:07.829Z,20.60
2018-11-07T19:28:39.941Z,20.27
2018-11-07T19:31:11.545Z,20.67
2018-11-07T19:33:43.325Z,21.60
2018-11-07T19:36:14.980Z,23.83
2018-11-07T19:38:46.859Z,21.33
2018-11-07T19:41:18.394Z,22.37
2018-11-07T19:43:49.901Z,23.03
2018-11-07T19:46:21.563Z,22.47
2018-11-07T19:48:52.991Z,23.00
2018-11-07T19:51:24.876Z,23.33
2018-11-07T19:53:56.514Z,23.13
2018-11-07T19:56:28.266Z,24.30
2018-11-07T19:59:00.138Z,24.30
2018-11-07T20:01:31.681Z,24.20
2018-11-07T20:04:03.877Z,24.97
2018-11-07T20:06:35.868Z,25.07
2018-11-07T20:09:10.116Z,23.57
2018-11-07T20:11:42.038Z,24.00
2018-11-07T20:14:14.147Z,24.47
2018-11-07T20:16:46.306Z,24.20
2018-11-07T20:19:18.181Z,24.97
2018-11-07T20:21:49.843Z,25.53
2018-11-07T20:24:22.988Z,26.23
2018-11-07T20:26:54.953Z,25.77
2018-11-07T20:29:27.875Z,26.37
2018-11-07T20:32:00.118Z,26.60
2018-11-07T20:34:31.859Z,24.50
2018-11-07T20:37:03.704Z,25.97
2018-11-07T20:39:35.735Z,25.10
2018-11-07T20:42:07.789Z,25.73
2018-11-07T20:44:39.621Z,26.30
2018-11-07T20:47:11.504Z,27.00
2018-11-07T20:49:43.214Z,27.10
2018-11-07T20:52:14.982Z,26.67
2018-11-07T20:54:46.867Z,61.50
2018-11-07T20:57:18.286Z,61.30
2018-11-07T20:59:50.080Z,28.40
2018-11-07T21:02:21.630Z,26.93
2018-11-07T21:04:53.303Z,27.27
2018-11-07T21:07:24.859Z,26.40
2018-11-07T21:09:56.312Z,29.90
2018-11-07T21:12:27.503Z,29.23
2018-11-07T21:14:59.034Z,28.30
2018-11-07T21:17:30.278Z,28.40
2018-11-07T21:20:01.806Z,29.63
2018-11-07T21:22:33.053Z,28.70
2018-11-07T21:25:05.166Z,31.13
2018-11-07T21:35:19.669Z,27.20
2018-11-07T21:37:51.737Z,29.53
2018-11-07T21:40:23.810Z,27.70
2018-11-07T21:42:55.339Z,28.03
2018-11-07T21:45:26.852Z,28.53
2018-11-07T21:47:58.252Z,28.13
2018-11-07T21:50:30.136Z,28.03
2018-11-07T21:53:01.714Z,27.30
2018-11-07T21:55:33.224Z,26.83
2018-11-07T21:58:04.600Z,27.90
2018-11-07T22:00:36.357Z,27.83
2018-11-07T22:03:07.746Z,26.63
2018-11-07T22:05:39.071Z,26.70
2018-11-07T22:08:10.132Z,26.77
2018-11-07T22:10:41.433Z,26.23
2018-11-07T22:13:13.035Z,26.60
2018-11-07T22:15:44.564Z,26.90
2018-11-07T22:18:16.321Z,27.37
2018-11-07T22:20:47.736Z,27.50
2018-11-07T22:23:19.107Z,28.60
2018-11-07T22:25:50.497Z,28.87
2018-11-07T22:28:22.234Z,26.73
2018-11-07T22:30:53.764Z,27.13
2018-11-07T22:33:25.242Z,27.33
2018-11-07T22:35:56.994Z,27.60
2018-11-07T22:38:28.410Z,27.17
2018-11-07T22:41:00.689Z,27.33
2018-11-07T22:43:32.125Z,26.83
2018-11-07T22:46:03.638Z,27.33
2018-11-07T22:48:35.310Z,26.97
2018-11-07T22:51:07.069Z,27.40
2018-11-07T22:53:38.273Z,28.33
2018-11-07T22:56:09.750Z,27.23
2018-11-07T22:58:41.340Z,27.87
2018-11-07T23:01:12.697Z,29.07
2018-11-07T23:03:44.237Z,28.07
2018-11-07T23:06:15.389Z,27.97
2018-11-07T23:08:46.983Z,27.47
2018-11-07T23:11:18.439Z,30.07
2018-11-07T23:13:49.768Z,28.93
2018-11-07T23:16:21.528Z,29.03
2018-11-07T23:18:52.764Z,28.07
2018-11-07T23:21:24.613Z,29.47
2018-11-07T23:23:56.142Z,30.13
2018-11-07T23:26:27.576Z,29.13
2018-11-07T23:28:58.959Z,29.03
2018-11-07T23:31:30.405Z,29.83
2018-11-07T23:34:02.462Z,28.70
2018-11-07T23:36:34.197Z,28.97
2018-11-07T23:39:07.371Z,28.50
2018-11-07T23:41:38.962Z,30.43
2018-11-07T23:44:10.454Z,28.17
2018-11-07T23:46:41.684Z,29.27
2018-11-07T23:49:13.365Z,28.70
2018-11-07T23:51:48.655Z,28.80
2018-11-07T23:54:21.759Z,28.27
2018-11-07T23:56:53.349Z,30.07
2018-11-07T23:59:24.712Z,29.00
